Time;durP1;ratioP1;P1;durP2;ratioP2;P2;SDS_P1;SDS_P2;PMS_P1;PMS_P2;Temp;Humidity;BMP_temperature;BMP_pressure;BME280_temperature;BME280_humidity;BME280_pressure;Samples;Min_cycle;Max_cycle;Signal;HPM_P1;HPM_P2
2021/10/13 00:01:41;;;;;;;;;;;14.70;99.90;;;;;;5095775;28;20320;-68
2021/10/13 00:04:08;;;;;;;;;;;14.60;99.90;;;;;;5096588;28;19984;-70
2021/10/13 00:06:34;;;;;;;;;;;14.70;99.90;;;;;;5094581;28;19912;-69
2021/10/13 00:09:01;;;;;;;;;;;14.60;99.90;;;;;;5113639;28;19927;-68
2021/10/13 00:11:28;;;;;;;;;;;14.70;99.90;;;;;;5115841;28;20266;-67
2021/10/13 00:13:54;;;;;;;;;;;14.70;99.90;;;;;;5115903;28;19938;-71
2021/10/13 00:16:21;;;;;;;;;;;14.70;99.90;;;;;;5116131;28;20049;-70
2021/10/13 00:18:48;;;;;;;;;;;14.70;99.90;;;;;;5114600;28;19968;-68
2021/10/13 00:21:14;;;;;;;;;;;14.60;99.90;;;;;;5115540;28;19908;-68
2021/10/13 00:23:41;;;;;;;;;;;14.60;99.90;;;;;;5115614;28;20274;-68
2021/10/13 00:26:07;;;;;;;;;;;14.60;99.90;;;;;;5115909;28;19914;-68
2021/10/13 00:28:34;;;;;;;;;;;14.70;99.90;;;;;;5116603;28;19907;-68
2021/10/13 00:31:01;;;;;;;;;;;14.80;99.90;;;;;;5117752;28;19920;-68
2021/10/13 00:33:28;;;;;;;;;;;14.70;99.90;;;;;;5115679;28;19915;-71
2021/10/13 00:35:54;;;;;;;;;;;14.70;99.90;;;;;;5115620;28;19907;-70
2021/10/13 00:38:21;;;;;;;;;;;14.70;99.90;;;;;;5115693;28;19954;-71
2021/10/13 00:40:48;;;;;;;;;;;14.80;99.90;;;;;;5115083;28;19908;-68
2021/10/13 00:43:15;;;;;;;;;;;14.70;99.90;;;;;;5115636;28;19911;-68
2021/10/13 00:45:41;;;;;;;;;;;14.80;99.90;;;;;;5115418;28;19994;-68
2021/10/13 00:48:08;;;;;;;;;;;14.90;99.90;;;;;;5115446;28;20299;-68
2021/10/13 00:50:35;;;;;;;;;;;15.00;99.90;;;;;;5103210;27;19951;-70
2021/10/13 00:53:02;;;;;;;;;;;15.00;99.90;;;;;;5092433;28;19951;-71
2021/10/13 00:55:30;;;;;;;;;;;15.00;99.90;;;;;;5094484;28;19908;-68
2021/10/13 00:57:56;;;;;;;;;;;15.00;99.90;;;;;;5097733;28;19908;-70
2021/10/13 01:00:24;;;;;;;;;;;14.90;99.90;;;;;;5099371;28;19912;-71
2021/10/13 01:03:09;;;;;;;;;;;14.90;99.90;;;;;;5098335;28;20382;-69
2021/10/13 01:05:48;;;;;;;;;;;14.90;99.90;;;;;;5077545;28;19909;-70
2021/10/13 01:08:31;;;;;;;;;;;14.90;99.90;;;;;;5077444;28;20011;-72
2021/10/13 01:10:57;;;;;;;;;;;14.90;99.90;;;;;;5074329;28;19920;-69
2021/10/13 01:13:27;;;;;;;;;;;14.90;99.90;;;;;;5074135;28;20596;-69
2021/10/13 01:16:11;;;;;;;;;;;14.90;99.90;;;;;;5074369;28;19916;-69
2021/10/13 01:18:50;;;;;;;;;;;15.00;99.90;;;;;;5073833;28;19912;-69
2021/10/13 01:21:35;;;;;;;;;;;15.00;99.90;;;;;;5073791;28;19908;-70
2021/10/13 01:24:14;;;;;;;;;;;14.90;99.90;;;;;;5074206;28;19908;-72
2021/10/13 01:26:47;;;;;;;;;;;15.00;99.90;;;;;;5074688;28;19908;-71
2021/10/13 01:29:16;;;;;;;;;;;15.20;99.90;;;;;;5105988;28;20400;-70
2021/10/13 01:31:44;;;;;;;;;;;15.30;99.90;;;;;;5073673;28;20352;-74
2021/10/13 01:34:15;;;;;;;;;;;15.60;99.90;;;;;;5073989;28;19909;-69
2021/10/13 01:36:52;;;;;;;;;;;15.70;99.90;;;;;;5074026;28;19912;-71
2021/10/13 01:39:18;;;;;;;;;;;15.70;99.90;;;;;;5073414;28;20018;-71
2021/10/13 01:41:46;;;;;;;;;;;15.80;99.90;;;;;;5073495;28;19915;-71
2021/10/13 01:44:15;;;;;;;;;;;15.80;99.90;;;;;;5073927;28;19969;-70
2021/10/13 01:46:45;;;;;;;;;;;15.70;99.90;;;;;;5092990;28;19908;-71
2021/10/13 01:49:12;;;;;;;;;;;15.80;99.90;;;;;;5114091;28;20004;-69
2021/10/13 01:51:41;;;;;;;;;;;15.80;99.90;;;;;;5113940;27;20010;-70
2021/10/13 01:54:08;;;;;;;;;;;15.80;99.90;;;;;;5114553;28;20006;-72
2021/10/13 01:56:35;;;;;;;;;;;15.80;99.90;;;;;;5113958;28;19908;-67
2021/10/13 01:59:04;;;;;;;;;;;15.70;99.90;;;;;;5107255;28;19953;-68
2021/10/13 02:01:31;;;;;;;;;;;15.50;99.90;;;;;;5093202;28;19916;-67
2021/10/13 02:04:00;;;;;;;;;;;15.50;99.90;;;;;;5093815;28;19915;-67
2021/10/13 02:06:28;;;;;;;;;;;15.50;99.90;;;;;;5102721;28;19914;-67
2021/10/13 02:08:56;;;;;;;;;;;15.50;99.90;;;;;;5113231;28;19955;-67
2021/10/13 02:11:32;;;;;;;;;;;15.70;99.90;;;;;;5113216;28;19919;-68
2021/10/13 02:14:07;;;;;;;;;;;15.70;99.90;;;;;;5113923;28;19935;-68
2021/10/13 02:16:35;;;;;;;;;;;15.80;99.90;;;;;;5114092;28;19912;-70
2021/10/13 02:19:06;;;;;;;;;;;15.90;99.90;;;;;;5110144;28;20304;-71
2021/10/13 02:21:35;;;;;;;;;;;16.00;99.90;;;;;;5113093;28;20200;-70
2021/10/13 02:24:03;;;;;;;;;;;16.00;99.90;;;;;;5113524;28;20355;-68
2021/10/13 02:26:33;;;;;;;;;;;16.00;99.90;;;;;;5113417;28;19907;-69
2021/10/13 02:29:03;;;;;;;;;;;16.10;99.90;;;;;;5113481;28;19915;-69
2021/10/13 02:31:30;;;;;;;;;;;16.20;99.90;;;;;;5112617;28;20000;-69
2021/10/13 02:33:57;;;;;;;;;;;16.30;99.90;;;;;;5097124;28;20285;-68
2021/10/13 02:36:24;;;;;;;;;;;16.20;99.90;;;;;;5092534;28;19954;-69
2021/10/13 02:38:50;;;;;;;;;;;16.30;99.90;;;;;;5092337;28;20250;-68
2021/10/13 02:41:17;;;;;;;;;;;16.40;99.90;;;;;;5092400;28;19979;-68
2021/10/13 02:43:44;;;;;;;;;;;16.30;99.90;;;;;;5092750;28;19934;-68
2021/10/13 02:46:15;;;;;;;;;;;16.30;99.90;;;;;;5092731;28;20274;-68
2021/10/13 02:48:45;;;;;;;;;;;16.30;99.90;;;;;;5111418;28;19999;-68
2021/10/13 02:51:12;;;;;;;;;;;16.30;99.90;;;;;;5112816;28;19980;-68
2021/10/13 02:56:32;;;;;;;;;;;16.40;99.90;;;;;;5109848;27;19916;-69
2021/10/13 02:59:04;;;;;;;;;;;16.50;99.90;;;;;;5110190;28;19947;-69
2021/10/13 03:01:34;;;;;;;;;;;16.50;99.90;;;;;;5109564;28;19998;-69
2021/10/13 03:04:03;;;;;;;;;;;16.50;99.90;;;;;;5109766;28;19912;-67
2021/10/13 03:06:50;;;;;;;;;;;16.50;99.90;;;;;;5126150;28;19919;-68
2021/10/13 03:09:18;;;;;;;;;;;16.50;99.90;;;;;;5129378;27;20014;-71
2021/10/13 03:11:58;;;;;;;;;;;16.60;99.90;;;;;;5125089;28;19951;-71
2021/10/13 03:14:26;;;;;;;;;;;16.50;99.90;;;;;;5130051;27;20289;-68
2021/10/13 03:16:54;;;;;;;;;;;16.60;99.90;;;;;;5130311;27;20366;-68
2021/10/13 03:19:21;;;;;;;;;;;16.60;99.90;;;;;;5130140;28;20297;-69
2021/10/13 03:21:49;;;;;;;;;;;16.60;99.90;;;;;;5129623;27;19912;-70
2021/10/13 03:24:19;;;;;;;;;;;16.70;99.90;;;;;;5129968;27;20522;-69
2021/10/13 03:26:50;;;;;;;;;;;16.60;99.90;;;;;;5130052;27;20350;-68
2021/10/13 03:29:17;;;;;;;;;;;16.70;99.90;;;;;;5129799;27;20003;-71
2021/10/13 03:31:43;;;;;;;;;;;16.70;99.90;;;;;;5129478;27;19908;-69
2021/10/13 03:34:10;;;;;;;;;;;16.70;99.90;;;;;;5130015;28;20282;-70
2021/10/13 03:36:40;;;;;;;;;;;16.70;99.90;;;;;;5130180;28;19908;-68
2021/10/13 03:39:07;;;;;;;;;;;16.70;99.90;;;;;;5129654;27;20010;-69
2021/10/13 03:41:34;;;;;;;;;;;16.70;99.90;;;;;;5129857;28;20321;-69
2021/10/13 03:44:01;;;;;;;;;;;16.80;99.90;;;;;;5132922;27;20064;-70
2021/10/13 03:46:27;;;;;;;;;;;16.80;99.90;;;;;;5131018;27;19911;-71
2021/10/13 03:48:54;;;;;;;;;;;16.80;99.90;;;;;;5128494;27;19915;-68
2021/10/13 03:51:21;;;;;;;;;;;16.80;99.90;;;;;;5128584;28;19918;-69
2021/10/13 03:53:48;;;;;;;;;;;16.70;99.90;;;;;;5129366;27;19912;-69
2021/10/13 03:56:15;;;;;;;;;;;16.80;99.90;;;;;;5127651;28;19928;-69
2021/10/13 03:58:42;;;;;;;;;;;16.80;99.90;;;;;;5129714;28;19908;-70
2021/10/13 04:01:09;;;;;;;;;;;16.70;99.90;;;;;;5129300;27;20354;-70
2021/10/13 04:03:37;;;;;;;;;;;16.70;99.90;;;;;;5129151;28;19907;-68
2021/10/13 04:06:04;;;;;;;;;;;16.80;99.90;;;;;;5125631;27;20367;-69
2021/10/13 04:08:30;;;;;;;;;;;16.80;99.90;;;;;;5114703;28;19912;-69
2021/10/13 04:10:57;;;;;;;;;;;16.80;99.90;;;;;;5115555;28;19907;-69
2021/10/13 04:13:24;;;;;;;;;;;16.90;99.90;;;;;;5115119;27;20362;-69
2021/10/13 04:15:50;;;;;;;;;;;16.80;99.90;;;;;;5115175;28;19969;-70
2021/10/13 04:18:17;;;;;;;;;;;16.80;99.90;;;;;;5096182;28;19961;-69
2021/10/13 04:20:43;;;;;;;;;;;16.70;99.90;;;;;;5093727;28;19983;-69
2021/10/13 04:23:10;;;;;;;;;;;16.70;99.90;;;;;;5094396;28;19916;-68
2021/10/13 04:25:37;;;;;;;;;;;16.60;99.90;;;;;;5094522;28;19908;-69
2021/10/13 04:28:05;;;;;;;;;;;16.50;99.90;;;;;;5095153;28;19908;-68
2021/10/13 04:30:32;;;;;;;;;;;16.50;99.90;;;;;;5094639;28;20017;-69
2021/10/13 04:32:59;;;;;;;;;;;16.50;99.90;;;;;;5094842;28;19912;-68
2021/10/13 04:35:26;;;;;;;;;;;16.40;99.90;;;;;;5094518;28;20323;-68
2021/10/13 04:37:53;;;;;;;;;;;16.30;99.90;;;;;;5094232;28;19916;-69
2021/10/13 04:40:19;;;;;;;;;;;16.10;99.90;;;;;;5094207;28;19908;-68
2021/10/13 04:42:46;;;;;;;;;;;16.10;99.90;;;;;;5094682;28;19914;-68
2021/10/13 04:45:12;;;;;;;;;;;16.00;99.90;;;;;;5094604;28;20002;-69
2021/10/13 04:47:39;;;;;;;;;;;16.10;99.90;;;;;;5094438;28;20338;-69
2021/10/13 04:50:06;;;;;;;;;;;16.10;99.90;;;;;;5094253;28;19908;-70
2021/10/13 04:52:33;;;;;;;;;;;16.10;99.90;;;;;;5094177;28;19916;-68
2021/10/13 04:55:00;;;;;;;;;;;16.10;99.90;;;;;;5094355;28;19995;-68
2021/10/13 04:57:26;;;;;;;;;;;16.20;99.90;;;;;;5074142;28;19942;-69
2021/10/13 04:59:55;;;;;;;;;;;16.10;99.90;;;;;;5073688;28;19916;-70
2021/10/13 05:02:21;;;;;;;;;;;16.10;99.90;;;;;;5073414;28;19908;-68
2021/10/13 05:04:49;;;;;;;;;;;16.10;99.90;;;;;;5073716;28;20260;-68
2021/10/13 05:07:17;;;;;;;;;;;16.10;99.90;;;;;;5073721;28;19999;-69
2021/10/13 05:09:44;;;;;;;;;;;16.10;99.90;;;;;;5073476;28;20479;-68
2021/10/13 05:12:10;;;;;;;;;;;16.20;99.90;;;;;;5073091;28;19913;-69
2021/10/13 05:14:37;;;;;;;;;;;16.20;99.90;;;;;;5073655;28;19912;-68
2021/10/13 05:17:04;;;;;;;;;;;16.20;99.90;;;;;;5073748;28;19965;-68
2021/10/13 05:19:30;;;;;;;;;;;16.20;99.90;;;;;;5072330;28;19908;-68
2021/10/13 05:21:57;;;;;;;;;;;16.30;99.90;;;;;;5073646;28;19909;-68
2021/10/13 05:24:24;;;;;;;;;;;16.20;99.90;;;;;;5073557;28;19908;-69
2021/10/13 05:26:50;;;;;;;;;;;16.20;99.90;;;;;;5072577;28;20362;-70
2021/10/13 05:29:17;;;;;;;;;;;16.30;99.90;;;;;;5073039;28;19947;-67
2021/10/13 05:31:44;;;;;;;;;;;16.30;99.90;;;;;;5054764;28;19908;-67
2021/10/13 05:34:10;;;;;;;;;;;16.30;99.90;;;;;;5084314;28;19908;-68
2021/10/13 05:36:37;;;;;;;;;;;16.40;99.90;;;;;;5065820;28;20346;-68
2021/10/13 05:39:04;;;;;;;;;;;16.50;99.90;;;;;;5079053;28;19908;-68
2021/10/13 05:41:31;;;;;;;;;;;16.50;99.90;;;;;;5093030;28;19912;-68
2021/10/13 05:43:58;;;;;;;;;;;16.50;99.90;;;;;;5093435;28;19912;-68
2021/10/13 05:46:24;;;;;;;;;;;16.50;99.90;;;;;;5092066;28;19908;-68
2021/10/13 05:48:51;;;;;;;;;;;16.50;99.90;;;;;;5093111;28;19919;-68
2021/10/13 05:51:18;;;;;;;;;;;16.50;99.90;;;;;;5090911;28;20540;-68
2021/10/13 05:53:47;;;;;;;;;;;16.50;99.90;;;;;;5083350;28;19908;-68
2021/10/13 05:56:14;;;;;;;;;;;16.50;99.90;;;;;;5089563;28;19924;-68
2021/10/13 05:58:41;;;;;;;;;;;16.50;99.90;;;;;;5090975;28;19912;-67
2021/10/13 06:01:08;;;;;;;;;;;16.60;99.90;;;;;;5090023;28;19973;-67
2021/10/13 06:03:35;;;;;;;;;;;16.60;99.90;;;;;;5091022;28;19912;-68
2021/10/13 06:06:01;;;;;;;;;;;16.60;99.90;;;;;;5090699;28;19908;-67
2021/10/13 06:08:28;;;;;;;;;;;16.60;99.90;;;;;;5090831;28;19912;-68
2021/10/13 06:10:55;;;;;;;;;;;16.60;99.90;;;;;;5090191;28;20366;-69
2021/10/13 06:13:21;;;;;;;;;;;16.70;99.90;;;;;;5091300;28;19912;-67
2021/10/13 06:15:50;;;;;;;;;;;16.60;99.90;;;;;;5090425;28;19935;-68
2021/10/13 06:18:17;;;;;;;;;;;16.60;99.90;;;;;;5090162;28;19909;-67
2021/10/13 06:20:46;;;;;;;;;;;16.60;99.90;;;;;;5090883;28;19916;-69
2021/10/13 06:23:13;;;;;;;;;;;16.60;99.90;;;;;;5090224;28;20308;-68
2021/10/13 06:25:40;;;;;;;;;;;16.60;99.90;;;;;;5091082;28;20279;-71
2021/10/13 06:28:06;;;;;;;;;;;16.60;99.90;;;;;;5090836;28;19919;-69
2021/10/13 06:30:37;;;;;;;;;;;16.60;99.90;;;;;;5090168;28;19908;-69
2021/10/13 06:33:06;;;;;;;;;;;16.70;99.90;;;;;;5088658;28;19919;-69
2021/10/13 06:35:33;;;;;;;;;;;16.70;99.90;;;;;;5094723;28;19923;-69
2021/10/13 06:38:04;;;;;;;;;;;16.70;99.90;;;;;;5111485;28;19915;-69
2021/10/13 06:40:31;;;;;;;;;;;16.70;99.90;;;;;;5111396;28;19912;-70
2021/10/13 06:43:00;;;;;;;;;;;16.70;99.90;;;;;;5099979;28;20123;-73
2021/10/13 06:45:26;;;;;;;;;;;16.70;99.90;;;;;;5090451;28;19909;-70
2021/10/13 06:47:53;;;;;;;;;;;16.70;99.90;;;;;;5089815;28;19912;-68
2021/10/13 06:50:20;;;;;;;;;;;16.70;99.90;;;;;;5090231;28;19951;-69
2021/10/13 06:52:46;;;;;;;;;;;16.80;99.90;;;;;;5090119;28;19912;-69
2021/10/13 06:55:14;;;;;;;;;;;16.80;99.90;;;;;;5091746;28;19924;-68
2021/10/13 06:57:40;;;;;;;;;;;16.80;99.90;;;;;;5073808;28;20355;-68
2021/10/13 07:00:07;;;;;;;;;;;16.90;99.90;;;;;;5070421;28;19919;-69
2021/10/13 07:02:34;;;;;;;;;;;16.90;99.90;;;;;;5070235;28;19912;-69
2021/10/13 07:05:00;;;;;;;;;;;16.90;99.90;;;;;;5070468;28;19915;-71
2021/10/13 07:07:27;;;;;;;;;;;16.90;99.90;;;;;;5070593;28;19917;-72
2021/10/13 07:09:54;;;;;;;;;;;16.90;99.90;;;;;;5069288;28;19970;-69
2021/10/13 07:12:20;;;;;;;;;;;16.90;99.90;;;;;;5070053;28;19915;-69
2021/10/13 07:14:47;;;;;;;;;;;16.90;99.90;;;;;;5070066;28;20335;-71
2021/10/13 07:17:14;;;;;;;;;;;16.90;99.90;;;;;;5051957;28;19959;-72
2021/10/13 07:19:41;;;;;;;;;;;16.90;99.90;;;;;;5069690;28;19913;-72
2021/10/13 07:22:07;;;;;;;;;;;16.90;99.90;;;;;;5069156;28;19966;-72
2021/10/13 07:24:34;;;;;;;;;;;16.90;99.90;;;;;;5074884;28;19972;-70
2021/10/13 07:27:01;;;;;;;;;;;16.90;99.90;;;;;;5078727;28;19916;-71
2021/10/13 07:29:28;;;;;;;;;;;17.00;99.90;;;;;;5069888;28;19985;-69
2021/10/13 07:31:57;;;;;;;;;;;17.00;99.90;;;;;;5069888;28;20363;-71
2021/10/13 07:34:23;;;;;;;;;;;16.90;99.90;;;;;;5069751;28;20259;-69
2021/10/13 07:36:50;;;;;;;;;;;16.90;99.90;;;;;;5064612;28;19923;-71
2021/10/13 07:39:17;;;;;;;;;;;16.90;99.90;;;;;;5082546;28;19916;-72
2021/10/13 07:41:44;;;;;;;;;;;16.90;99.90;;;;;;5073048;28;19947;-71
2021/10/13 07:44:10;;;;;;;;;;;16.90;99.90;;;;;;5073409;28;19990;-69
2021/10/13 07:46:37;;;;;;;;;;;16.90;99.90;;;;;;5073025;28;20326;-70
2021/10/13 07:49:03;;;;;;;;;;;16.80;99.90;;;;;;5072061;28;20302;-68
2021/10/13 07:51:30;;;;;;;;;;;16.80;99.90;;;;;;5072936;28;20310;-69
2021/10/13 07:53:57;;;;;;;;;;;16.70;99.90;;;;;;5072624;28;19947;-71
2021/10/13 07:56:23;;;;;;;;;;;16.70;99.90;;;;;;5093480;28;19924;-70
2021/10/13 07:58:50;;;;;;;;;;;16.70;99.90;;;;;;5093142;28;19912;-70
2021/10/13 08:01:17;;;;;;;;;;;16.80;99.90;;;;;;5093297;28;19912;-68
2021/10/13 08:03:47;;;;;;;;;;;16.80;99.90;;;;;;5092950;28;19915;-68
2021/10/13 08:06:14;;;;;;;;;;;16.80;99.90;;;;;;5094264;28;19912;-68
2021/10/13 08:08:41;;;;;;;;;;;16.80;99.90;;;;;;5095015;28;19908;-68
2021/10/13 08:11:08;;;;;;;;;;;16.70;99.90;;;;;;5094960;28;19953;-68
2021/10/13 08:13:35;;;;;;;;;;;16.80;99.90;;;;;;5094910;28;19909;-67
2021/10/13 08:16:04;;;;;;;;;;;16.80;99.90;;;;;;5094958;28;19982;-68
2021/10/13 08:18:31;;;;;;;;;;;16.90;99.90;;;;;;5095045;28;20006;-68
2021/10/13 08:20:58;;;;;;;;;;;16.90;99.90;;;;;;5093340;28;20452;-69
2021/10/13 08:23:24;;;;;;;;;;;16.90;99.90;;;;;;5094632;28;19908;-68
2021/10/13 08:25:55;;;;;;;;;;;16.90;99.90;;;;;;5094971;28;19908;-69
2021/10/13 08:28:22;;;;;;;;;;;16.90;99.90;;;;;;5095168;28;19908;-69
2021/10/13 08:30:49;;;;;;;;;;;16.90;99.90;;;;;;5108152;28;19908;-69
2021/10/13 08:33:15;;;;;;;;;;;16.90;99.90;;;;;;5115123;28;19912;-69
2021/10/13 08:35:42;;;;;;;;;;;16.90;99.90;;;;;;5114906;28;20363;-69
2021/10/13 08:38:09;;;;;;;;;;;17.00;99.90;;;;;;5115112;28;19915;-70
2021/10/13 08:40:35;;;;;;;;;;;17.00;99.90;;;;;;5114413;28;19938;-70
2021/10/13 08:43:03;;;;;;;;;;;16.90;99.90;;;;;;5114666;28;20349;-69
2021/10/13 08:45:30;;;;;;;;;;;17.00;99.90;;;;;;5114857;28;20350;-70
2021/10/13 08:47:57;;;;;;;;;;;17.00;99.90;;;;;;5114780;28;19980;-71
2021/10/13 08:50:25;;;;;;;;;;;16.90;99.90;;;;;;5114620;28;19957;-73
2021/10/13 08:52:53;;;;;;;;;;;16.90;99.90;;;;;;5114561;28;20279;-71
2021/10/13 08:55:20;;;;;;;;;;;16.90;99.90;;;;;;5090719;28;19946;-71
2021/10/13 08:58:06;;;;;;;;;;;17.00;99.90;;;;;;5094085;28;20329;-72
2021/10/13 09:00:33;;;;;;;;;;;17.00;99.90;;;;;;5093931;28;19909;-72
2021/10/13 09:03:01;;;;;;;;;;;17.00;99.90;;;;;;5094288;28;19908;-70
2021/10/13 09:05:27;;;;;;;;;;;16.90;99.90;;;;;;5093842;28;19908;-69
2021/10/13 09:07:56;;;;;;;;;;;17.00;99.90;;;;;;5094233;28;19914;-72
2021/10/13 09:10:27;;;;;;;;;;;17.00;99.90;;;;;;5093657;28;19924;-73
2021/10/13 09:12:54;;;;;;;;;;;17.00;99.90;;;;;;5094426;28;19919;-72
2021/10/13 09:15:24;;;;;;;;;;;17.00;99.90;;;;;;5092807;28;19916;-71
2021/10/13 09:17:51;;;;;;;;;;;17.00;99.90;;;;;;5087925;28;19921;-72
2021/10/13 09:20:18;;;;;;;;;;;17.00;99.90;;;;;;5053573;28;19932;-73
2021/10/13 09:22:55;;;;;;;;;;;17.00;99.90;;;;;;5054248;28;19947;-72
2021/10/13 09:25:22;;;;;;;;;;;17.00;99.90;;;;;;5073389;28;19987;-73
2021/10/13 09:27:48;;;;;;;;;;;17.00;99.90;;;;;;5073057;28;19913;-69
2021/10/13 09:30:15;;;;;;;;;;;17.00;99.90;;;;;;5073586;28;19966;-71
2021/10/13 09:32:43;;;;;;;;;;;17.00;99.90;;;;;;5074122;28;20275;-72
2021/10/13 09:35:09;;;;;;;;;;;17.00;99.90;;;;;;5073481;28;19916;-73
2021/10/13 09:37:43;;;;;;;;;;;17.10;99.90;;;;;;5073343;28;19915;-71
2021/10/13 09:40:10;;;;;;;;;;;17.10;99.90;;;;;;5072761;28;19908;-69
2021/10/13 09:42:38;;;;;;;;;;;17.10;99.90;;;;;;5072921;28;19908;-72
2021/10/13 09:45:05;;;;;;;;;;;17.10;99.90;;;;;;5073158;28;20023;-71
2021/10/13 09:47:33;;;;;;;;;;;17.10;99.90;;;;;;5072891;28;19912;-72
2021/10/13 09:50:02;;;;;;;;;;;17.00;99.90;;;;;;5073383;28;19909;-71
2021/10/13 09:52:30;;;;;;;;;;;17.10;99.90;;;;;;5072694;28;19915;-71
2021/10/13 09:55:11;;;;;;;;;;;17.00;99.90;;;;;;5078928;28;20003;-68
2021/10/13 09:57:44;;;;;;;;;;;17.10;99.90;;;;;;5093162;28;20272;-69
2021/10/13 10:00:12;;;;;;;;;;;17.10;99.90;;;;;;5093303;28;19934;-72
2021/10/13 10:02:45;;;;;;;;;;;17.10;99.90;;;;;;5095520;28;19938;-68
2021/10/13 10:05:16;;;;;;;;;;;17.10;99.90;;;;;;5095647;28;19937;-69
2021/10/13 10:07:46;;;;;;;;;;;17.00;99.90;;;;;;5093058;28;19991;-72
2021/10/13 10:10:14;;;;;;;;;;;17.10;99.90;;;;;;5092562;28;19915;-71
2021/10/13 10:12:58;;;;;;;;;;;17.10;99.90;;;;;;5092703;28;20381;-71
2021/10/13 10:15:29;;;;;;;;;;;17.10;99.90;;;;;;5092772;28;19922;-71
2021/10/13 10:17:56;;;;;;;;;;;17.10;99.90;;;;;;5095399;28;20418;-71
2021/10/13 10:20:39;;;;;;;;;;;17.10;99.90;;;;;;5112972;28;19978;-72
2021/10/13 10:23:27;;;;;;;;;;;17.10;99.90;;;;;;5113297;28;19941;-68
2021/10/13 10:25:55;;;;;;;;;;;17.10;99.90;;;;;;5112663;28;19911;-69
2021/10/13 10:28:39;;;;;;;;;;;17.00;99.90;;;;;;5113319;28;19915;-70
2021/10/13 10:31:24;;;;;;;;;;;17.00;99.90;;;;;;5112883;28;19915;-70
2021/10/13 10:33:51;;;;;;;;;;;17.00;99.90;;;;;;5112862;28;19908;-70
2021/10/13 10:36:17;;;;;;;;;;;16.90;99.90;;;;;;5112569;28;19920;-72
2021/10/13 10:38:48;;;;;;;;;;;16.90;99.90;;;;;;5112984;28;19915;-69
2021/10/13 10:41:14;;;;;;;;;;;16.90;99.90;;;;;;5112112;28;19914;-70
2021/10/13 10:43:41;;;;;;;;;;;16.80;99.90;;;;;;5112865;28;20425;-69
2021/10/13 10:46:09;;;;;;;;;;;16.80;99.90;;;;;;5113099;28;19977;-71
2021/10/13 10:48:45;;;;;;;;;;;16.80;99.90;;;;;;5113073;28;19907;-70
2021/10/13 10:51:12;;;;;;;;;;;16.70;99.90;;;;;;5112229;28;20374;-72
2021/10/13 10:53:39;;;;;;;;;;;16.70;99.90;;;;;;5111992;28;20362;-70
2021/10/13 10:56:17;;;;;;;;;;;16.60;99.90;;;;;;5112768;28;19986;-70
2021/10/13 10:59:01;;;;;;;;;;;16.60;99.90;;;;;;5113032;28;19930;-70
2021/10/13 11:01:29;;;;;;;;;;;16.50;99.90;;;;;;5112902;28;19947;-72
2021/10/13 11:03:56;;;;;;;;;;;16.40;99.90;;;;;;5112558;28;19908;-69
2021/10/13 11:06:22;;;;;;;;;;;16.40;99.90;;;;;;5112817;28;20442;-71
2021/10/13 11:09:02;;;;;;;;;;;16.30;99.90;;;;;;5112160;28;19915;-69
2021/10/13 11:11:40;;;;;;;;;;;16.40;99.90;;;;;;5112754;28;20281;-71
2021/10/13 11:14:21;;;;;;;;;;;16.30;99.90;;;;;;5112740;28;19908;-71
2021/10/13 11:16:54;;;;;;;;;;;16.40;99.90;;;;;;5114305;28;19968;-69
2021/10/13 11:19:27;;;;;;;;;;;16.40;99.90;;;;;;5116864;28;20362;-69
2021/10/13 11:21:57;;;;;;;;;;;16.40;99.90;;;;;;5116566;28;19930;-71
2021/10/13 11:24:24;;;;;;;;;;;16.40;99.90;;;;;;5116909;28;19908;-70
2021/10/13 11:26:50;;;;;;;;;;;16.40;99.90;;;;;;5116880;28;19992;-67
2021/10/13 11:29:18;;;;;;;;;;;16.40;99.90;;;;;;5116877;28;19968;-70
2021/10/13 11:31:45;;;;;;;;;;;16.40;99.90;;;;;;5079871;28;19948;-72
2021/10/13 11:34:13;;;;;;;;;;;16.50;99.90;;;;;;5075699;28;20281;-72
2021/10/13 11:36:47;;;;;;;;;;;16.40;99.90;;;;;;5075704;28;19917;-70
2021/10/13 11:39:21;;;;;;;;;;;16.40;99.90;;;;;;5076668;28;19908;-69
2021/10/13 11:41:48;;;;;;;;;;;16.50;99.90;;;;;;5075796;28;19938;-70
2021/10/13 11:44:16;;;;;;;;;;;16.50;99.90;;;;;;5075788;28;19970;-70
2021/10/13 11:46:52;;;;;;;;;;;16.50;99.90;;;;;;5074892;28;20331;-69
2021/10/13 11:49:19;;;;;;;;;;;16.50;99.90;;;;;;5075639;28;19913;-69
2021/10/13 11:52:03;;;;;;;;;;;16.60;99.90;;;;;;5075349;28;20371;-72
2021/10/13 11:54:30;;;;;;;;;;;16.60;99.90;;;;;;5075359;28;19909;-69
2021/10/13 11:56:57;;;;;;;;;;;16.60;99.90;;;;;;5075430;28;19909;-71
2021/10/13 11:59:24;;;;;;;;;;;16.60;99.90;;;;;;5075544;28;19912;-70
2021/10/13 12:01:51;;;;;;;;;;;16.60;99.90;;;;;;5073667;28;20286;-71
2021/10/13 12:04:18;;;;;;;;;;;16.60;99.90;;;;;;5075429;28;19916;-69
2021/10/13 12:06:45;;;;;;;;;;;16.60;99.90;;;;;;5075261;28;20107;-72
2021/10/13 12:09:12;;;;;;;;;;;16.60;99.90;;;;;;5075448;28;19920;-71
2021/10/13 12:11:39;;;;;;;;;;;16.60;99.90;;;;;;5075002;28;20349;-69
2021/10/13 12:14:15;;;;;;;;;;;16.70;99.90;;;;;;5075049;28;20423;-69
2021/10/13 12:16:41;;;;;;;;;;;16.70;99.90;;;;;;5075572;28;20414;-69
2021/10/13 12:19:15;;;;;;;;;;;16.60;99.90;;;;;;5094936;28;20382;-70
2021/10/13 12:21:57;;;;;;;;;;;16.70;99.90;;;;;;5094656;28;20356;-70
2021/10/13 12:24:24;;;;;;;;;;;16.60;99.90;;;;;;5095483;28;19908;-71
2021/10/13 12:26:52;;;;;;;;;;;16.60;99.90;;;;;;5095100;28;19908;-69
2021/10/13 12:29:19;;;;;;;;;;;16.60;99.90;;;;;;5095109;28;19908;-71
2021/10/13 12:31:46;;;;;;;;;;;16.60;99.90;;;;;;5094974;28;19915;-71
2021/10/13 12:34:18;;;;;;;;;;;16.60;99.90;;;;;;5095165;28;19908;-72
2021/10/13 12:36:53;;;;;;;;;;;16.60;99.90;;;;;;5094633;28;19923;-72
2021/10/13 12:39:34;;;;;;;;;;;;;;;;;;;;;
2021/10/13 12:42:07;;;;;;;;;;;16.60;99.90;;;;;;5111830;28;19908;-69
2021/10/13 12:44:34;;;;;;;;;;;16.60;99.90;;;;;;5115256;28;20333;-69
2021/10/13 12:47:05;;;;;;;;;;;16.60;99.90;;;;;;5115444;28;19953;-71
2021/10/13 12:49:36;;;;;;;;;;;16.60;99.90;;;;;;5115042;28;20014;-71
2021/10/13 12:52:05;;;;;;;;;;;16.60;99.90;;;;;;5115238;28;19907;-70
2021/10/13 12:54:36;;;;;;;;;;;16.60;99.90;;;;;;5114891;28;19915;-69
2021/10/13 12:57:04;;;;;;;;;;;16.60;99.90;;;;;;5115219;28;20259;-69
2021/10/13 12:59:31;;;;;;;;;;;16.60;99.90;;;;;;5114996;28;19915;-70
2021/10/13 13:01:57;;;;;;;;;;;16.60;99.90;;;;;;5114936;27;19908;-69
2021/10/13 13:04:24;;;;;;;;;;;16.60;99.90;;;;;;5114560;28;19908;-69
2021/10/13 13:06:51;;;;;;;;;;;16.70;99.90;;;;;;5114956;28;19908;-69
2021/10/13 13:09:18;;;;;;;;;;;16.60;99.90;;;;;;5114929;28;19912;-71
2021/10/13 13:11:45;;;;;;;;;;;16.70;99.90;;;;;;5114548;28;19908;-68
2021/10/13 13:14:11;;;;;;;;;;;16.70;99.90;;;;;;5113393;28;19960;-69
2021/10/13 13:16:38;;;;;;;;;;;16.70;99.90;;;;;;5115869;28;19924;-70
2021/10/13 13:19:05;;;;;;;;;;;16.70;99.90;;;;;;5114880;28;19914;-72
2021/10/13 13:21:31;;;;;;;;;;;16.70;99.90;;;;;;5114193;28;20358;-71
2021/10/13 13:23:58;;;;;;;;;;;16.60;99.90;;;;;;5114511;28;19923;-71
2021/10/13 13:26:25;;;;;;;;;;;16.60;99.90;;;;;;5114571;28;20354;-72
2021/10/13 13:28:52;;;;;;;;;;;16.60;99.90;;;;;;5114445;28;19969;-72
2021/10/13 13:31:18;;;;;;;;;;;16.60;99.90;;;;;;5114292;28;19957;-71
2021/10/13 13:33:45;;;;;;;;;;;16.70;99.90;;;;;;5114381;28;19915;-72
2021/10/13 13:36:13;;;;;;;;;;;16.70;99.90;;;;;;5114092;28;19967;-70
2021/10/13 13:38:40;;;;;;;;;;;16.70;99.90;;;;;;5113801;28;19908;-73
2021/10/13 13:41:07;;;;;;;;;;;16.80;99.90;;;;;;5114088;28;19930;-72
2021/10/13 13:43:34;;;;;;;;;;;16.80;99.90;;;;;;5113874;28;19908;-72
2021/10/13 13:46:01;;;;;;;;;;;16.80;99.90;;;;;;5114056;28;19907;-69
2021/10/13 13:48:28;;;;;;;;;;;16.80;99.90;;;;;;5113992;28;20398;-70
2021/10/13 13:51:01;;;;;;;;;;;16.80;99.90;;;;;;5113990;28;19908;-72
2021/10/13 13:53:28;;;;;;;;;;;16.80;99.90;;;;;;5112445;28;19912;-72
2021/10/13 13:55:56;;;;;;;;;;;16.80;99.90;;;;;;5113024;28;19955;-71
2021/10/13 13:58:23;;;;;;;;;;;16.90;99.90;;;;;;5113783;28;19908;-69
2021/10/13 14:00:50;;;;;;;;;;;16.90;99.90;;;;;;5113814;28;19908;-70
2021/10/13 14:03:17;;;;;;;;;;;16.90;99.90;;;;;;5113800;28;19912;-72
2021/10/13 14:05:43;;;;;;;;;;;16.90;99.90;;;;;;5113490;28;19911;-71
2021/10/13 14:08:10;;;;;;;;;;;16.90;99.90;;;;;;5113810;28;19915;-71
2021/10/13 14:10:37;;;;;;;;;;;16.90;99.90;;;;;;5113699;28;20444;-69
2021/10/13 14:13:04;;;;;;;;;;;16.90;99.90;;;;;;5113585;28;19908;-69
2021/10/13 14:15:31;;;;;;;;;;;16.90;99.90;;;;;;5113261;28;19976;-68
2021/10/13 14:17:58;;;;;;;;;;;16.90;99.90;;;;;;5113453;28;19912;-70
2021/10/13 14:20:25;;;;;;;;;;;16.90;99.90;;;;;;5113405;28;20011;-69
2021/10/13 14:22:52;;;;;;;;;;;16.90;99.90;;;;;;5113465;28;19960;-69
2021/10/13 14:25:18;;;;;;;;;;;16.90;99.90;;;;;;5113477;28;19912;-69
2021/10/13 14:27:45;;;;;;;;;;;16.90;99.90;;;;;;5113240;28;19912;-69
2021/10/13 14:30:12;;;;;;;;;;;16.90;99.90;;;;;;5113394;28;19915;-69